Time;durP1;ratioP1;P1;durP2;ratioP2;P2;SDS_P1;SDS_P2;PMS_P1;PMS_P2;Temp;Humidity;BMP_temperature;BMP_pressure;BME280_temperature;BME280_humidity;BME280_pressure;Samples;Min_cycle;Max_cycle;Signal;HPM_P1;HPM_P2
2021/12/09 00:01:22;;;;;;;55.95;30.05;;;;;;;1.41;75.88;98360.72;4360507;32;34416;-85
2021/12/09 00:03:54;;;;;;;58.25;32.17;;;;;;;1.41;75.73;98347.97;4347509;32;34947;-86
2021/12/09 00:06:26;;;;;;;59.72;31.20;;;;;;;1.59;75.45;98346.06;4334530;32;33753;-85
2021/12/09 00:08:55;;;;;;;59.75;31.95;;;;;;;1.57;75.70;98341.69;4361361;32;35039;-85
2021/12/09 00:11:23;;;;;;;62.30;33.33;;;;;;;1.45;76.14;98342.16;4360603;32;33585;-85
2021/12/09 00:13:51;;;;;;;63.33;33.17;;;;;;;1.32;76.49;98358.69;4360453;32;32740;-86
2021/12/09 00:16:19;;;;;;;63.22;33.00;;;;;;;1.77;75.40;98357.72;4347355;32;34106;-86
2021/12/09 00:18:47;;;;;;;64.35;33.25;;;;;;;2.02;74.52;98374.75;4361162;32;33979;-85
2021/12/09 00:21:16;;;;;;;64.05;33.33;;;;;;;1.68;75.27;98369.34;4360750;32;33570;-85
2021/12/09 00:23:43;;;;;;;66.00;33.17;;;;;;;1.38;76.34;98375.94;4347341;32;33686;-86
2021/12/09 00:26:11;;;;;;;64.00;33.63;;;;;;;1.34;76.54;98374.09;4335213;32;32703;-86
2021/12/09 00:28:38;;;;;;;67.50;34.53;;;;;;;1.56;75.70;98374.03;4360852;32;34718;-84
2021/12/09 00:31:06;;;;;;;67.40;36.90;;;;;;;1.25;76.73;98373.75;4361232;32;33299;-84
2021/12/09 00:33:41;;;;;;;64.53;32.88;;;;;;;1.42;76.22;98355.66;4334557;32;33923;-84
2021/12/09 00:36:09;;;;;;;70.22;35.08;;;;;;;1.14;76.89;98341.06;4360521;32;34137;-86
2021/12/09 00:38:39;;;;;;;64.95;31.05;;;;;;;1.19;77.27;98331.00;4360820;32;33701;-86
2021/12/09 00:41:12;;;;;;;62.40;32.53;;;;;;;1.03;77.83;98329.56;4360306;32;33490;-85
2021/12/09 00:43:42;;;;;;;68.45;34.38;;;;;;;1.21;77.06;98334.47;4360225;32;33483;-86
2021/12/09 00:46:10;;;;;;;64.72;33.08;;;;;;;1.35;76.51;98323.06;4360561;32;34208;-86
2021/12/09 00:48:37;;;;;;;65.95;31.00;;;;;;;1.15;77.01;98329.16;4360673;32;33486;-85
2021/12/09 00:51:07;;;;;;;71.55;34.17;;;;;;;1.32;76.23;98309.31;4360610;32;32877;-86
2021/12/09 00:53:36;;;;;;;60.85;31.17;;;;;;;1.18;76.97;98308.84;4346715;32;34071;-85
2021/12/09 00:56:04;;;;;;;70.25;34.42;;;;;;;0.92;77.73;98296.00;4345431;32;32901;-86
2021/12/09 00:58:32;;;;;;;68.55;33.25;;;;;;;0.90;78.15;98294.19;4360498;32;34028;-85
2021/12/09 01:01:00;;;;;;;71.43;33.72;;;;;;;0.99;78.41;98296.25;4360318;32;33796;-85
2021/12/09 01:03:28;;;;;;;67.32;33.45;;;;;;;1.18;77.10;98281.62;4347279;32;34576;-86
2021/12/09 01:05:56;;;;;;;74.07;35.60;;;;;;;0.84;78.11;98291.44;4359788;32;34268;-86
2021/12/09 01:08:40;;;;;;;66.20;33.85;;;;;;;0.78;78.80;98298.84;4361124;32;34036;-87
2021/12/09 01:11:09;;;;;;;68.62;34.25;;;;;;;1.12;77.44;98314.59;4360057;32;33422;-86
2021/12/09 01:13:38;;;;;;;74.95;36.13;;;;;;;1.16;77.59;98316.44;4357555;32;34056;-83
2021/12/09 01:16:05;;;;;;;79.68;37.30;;;;;;;0.96;77.96;98317.41;4346419;32;35048;-84
2021/12/09 01:18:35;;;;;;;70.05;35.70;;;;;;;1.26;77.26;98309.13;4360160;32;33816;-85
2021/12/09 01:21:04;;;;;;;79.97;38.38;;;;;;;1.06;77.76;98314.38;4360278;32;34314;-86
2021/12/09 01:23:32;;;;;;;82.75;39.28;;;;;;;1.06;77.80;98318.59;4346611;32;31998;-85
2021/12/09 01:26:02;;;;;;;75.97;36.40;;;;;;;1.02;77.90;98316.75;4359700;32;33790;-85
2021/12/09 01:28:39;;;;;;;70.97;36.22;;;;;;;1.13;77.68;98311.19;4360155;32;33797;-86
2021/12/09 01:31:08;;;;;;;80.97;36.17;;;;;;;1.27;77.15;98306.59;4347811;32;33419;-85
2021/12/09 01:33:36;;;;;;;78.53;36.08;;;;;;;1.22;77.20;98305.59;4346457;32;34254;-88
2021/12/09 01:36:05;;;;;;;72.87;34.78;;;;;;;1.12;77.54;98294.16;4346539;32;33697;-87
2021/12/09 01:38:33;;;;;;;68.62;32.13;;;;;;;1.06;77.57;98276.09;4345986;32;33944;-86
2021/12/09 01:41:02;;;;;;;78.22;35.30;;;;;;;0.89;78.03;98284.81;4346618;32;33400;-85
2021/12/09 01:43:30;;;;;;;78.43;36.38;;;;;;;0.85;78.13;98273.63;4346883;32;33832;-84
2021/12/09 01:46:06;;;;;;;73.68;34.53;;;;;;;0.99;77.66;98260.50;4346893;32;35076;-85
2021/12/09 01:48:34;;;;;;;76.15;36.47;;;;;;;0.64;78.59;98272.81;4359650;32;33837;-85
2021/12/09 01:51:04;;;;;;;65.32;33.03;;;;;;;0.96;77.68;98253.59;4352684;32;33799;-86
2021/12/09 01:53:32;;;;;;;73.12;35.60;;;;;;;0.97;77.35;98253.63;4360057;32;33507;-84
2021/12/09 01:56:01;;;;;;;65.15;33.30;;;;;;;0.77;78.14;98246.97;4346548;32;33871;-85
2021/12/09 01:58:29;;;;;;;59.67;29.00;;;;;;;0.82;77.61;98236.91;4346761;32;34543;-85
2021/12/09 02:00:57;;;;;;;74.00;33.85;;;;;;;0.60;78.49;98236.12;4339869;32;34422;-84
2021/12/09 02:03:25;;;;;;;73.15;35.38;;;;;;;0.88;77.87;98243.13;4328030;33;33660;-85
2021/12/09 02:05:54;;;;;;;67.15;31.70;;;;;;;0.76;78.03;98242.69;4346538;32;32978;-87
2021/12/09 02:08:24;;;;;;;73.90;33.30;;;;;;;0.60;78.51;98232.72;4359139;32;34645;-84
2021/12/09 02:10:53;;;;;;;73.32;32.55;;;;;;;0.68;78.22;98228.75;4343404;32;33539;-85
2021/12/09 02:13:21;;;;;;;66.57;31.35;;;;;;;0.65;78.14;98221.00;4359949;32;34024;-84
2021/12/09 02:15:52;;;;;;;56.05;27.45;;;;;;;0.43;79.20;98209.16;4346320;32;34233;-86
2021/12/09 02:18:21;;;;;;;62.90;31.35;;;;;;;0.30;79.46;98179.75;4346855;32;33877;-87
2021/12/09 02:21:12;;;;;;;59.05;29.90;;;;;;;0.36;79.76;98190.19;4359559;32;34539;-86
2021/12/09 02:23:45;;;;;;;57.67;26.67;;;;;;;0.57;78.72;98215.63;4346299;32;34338;-86
2021/12/09 02:26:13;;;;;;;63.90;31.02;;;;;;;0.41;79.19;98221.81;4346112;32;33853;-85
2021/12/09 02:28:44;;;;;;;59.53;25.25;;;;;;;0.59;78.98;98220.78;4359794;32;33841;-86
2021/12/09 02:31:12;;;;;;;57.95;27.35;;;;;;;0.30;79.81;98215.44;4359622;32;34145;-86
2021/12/09 02:33:40;;;;;;;64.45;29.75;;;;;;;0.61;78.78;98222.59;4359641;32;33903;-85
2021/12/09 02:36:08;;;;;;;57.80;28.92;;;;;;;0.42;79.74;98213.38;4346401;32;34151;-85
2021/12/09 02:38:43;;;;;;;59.35;27.98;;;;;;;0.57;79.60;98207.09;4346013;32;34973;-86
2021/12/09 02:41:15;;;;;;;56.70;26.63;;;;;;;0.57;79.42;98207.09;4334992;32;33409;-85
2021/12/09 02:43:46;;;;;;;56.78;27.58;;;;;;;0.55;79.21;98216.38;4359766;32;34664;-86
2021/12/09 02:46:15;;;;;;;58.72;28.65;;;;;;;0.64;78.84;98196.28;4359258;32;33738;-85
2021/12/09 02:48:44;;;;;;;57.90;28.30;;;;;;;0.72;78.62;98239.16;4359111;32;34714;-87
2021/12/09 02:51:12;;;;;;;55.65;28.15;;;;;;;1.22;76.78;98244.31;4359631;32;33204;-84
2021/12/09 02:53:40;;;;;;;54.97;27.17;;;;;;;0.86;77.69;98259.19;4359295;32;33838;-86
2021/12/09 02:56:08;;;;;;;57.47;25.83;;;;;;;0.78;78.22;98229.97;4346401;32;33680;-85
2021/12/09 02:58:35;;;;;;;58.35;28.77;;;;;;;0.66;78.75;98210.00;4345730;32;33553;-85
2021/12/09 03:01:12;;;;;;;58.85;27.45;;;;;;;0.50;79.87;98217.91;4346118;32;33406;-85
2021/12/09 03:03:52;;;;;;;64.97;29.87;;;;;;;0.34;80.37;98217.34;4359038;32;34884;-86
2021/12/09 03:06:33;;;;;;;54.55;25.92;;;;;;;0.43;80.53;98210.00;4359066;32;34203;-88
2021/12/09 03:09:05;;;;;;;55.40;26.05;;;;;;;0.67;79.65;98206.62;4356423;32;34766;-89
2021/12/09 03:11:33;;;;;;;55.72;24.60;;;;;;;0.35;80.45;98187.59;4345867;32;33244;-87
2021/12/09 03:14:01;;;;;;;53.40;25.33;;;;;;;0.59;79.65;98196.13;4359166;32;33768;-88
2021/12/09 03:16:29;;;;;;;58.97;27.00;;;;;;;0.62;79.49;98210.69;4359536;32;34168;-90
2021/12/09 03:19:02;;;;;;;59.03;27.10;;;;;;;0.50;80.08;98228.97;4346855;32;34057;-89
2021/12/09 03:21:38;;;;;;;52.15;27.17;;;;;;;0.75;79.39;98223.06;4347606;32;34395;-88
2021/12/09 03:24:08;;;;;;;52.00;25.25;;;;;;;0.72;79.20;98235.72;4361208;32;34754;-87
2021/12/09 03:26:56;;;;;;;57.17;28.85;;;;;;;0.83;78.97;98229.31;4347762;32;33981;-88
2021/12/09 03:29:27;;;;;;;50.60;26.15;;;;;;;0.96;78.70;98226.38;4352387;32;34856;-86
2021/12/09 03:31:57;;;;;;;52.78;24.52;;;;;;;0.52;80.11;98223.91;4361505;32;33763;-87
2021/12/09 03:34:28;;;;;;;59.40;26.90;;;;;;;0.92;79.18;98206.69;4360794;32;33707;-88
2021/12/09 03:36:58;;;;;;;57.85;26.10;;;;;;;0.82;79.40;98199.50;4361285;32;33908;-88
2021/12/09 03:39:29;;;;;;;57.72;27.20;;;;;;;0.86;79.38;98201.34;4347855;32;33962;-87
2021/12/09 03:41:57;;;;;;;54.05;26.98;;;;;;;0.65;79.83;98211.69;4347729;32;32750;-89
2021/12/09 03:44:25;;;;;;;53.87;26.15;;;;;;;0.64;79.96;98211.59;4347650;32;34670;-89
2021/12/09 03:46:53;;;;;;;60.17;26.92;;;;;;;0.89;79.41;98213.38;4360435;32;34964;-88
2021/12/09 03:49:20;;;;;;;53.80;26.12;;;;;;;0.76;79.43;98222.28;4360923;32;33610;-87
2021/12/09 03:51:48;;;;;;;57.05;27.48;;;;;;;0.96;78.91;98216.19;4347491;32;34191;-87
2021/12/09 03:54:15;;;;;;;53.47;26.83;;;;;;;0.82;79.49;98225.03;4360728;32;33586;-87
2021/12/09 03:56:43;;;;;;;57.75;27.20;;;;;;;0.84;79.69;98217.44;4361096;32;34167;-89
2021/12/09 03:59:12;;;;;;;60.42;27.33;;;;;;;0.82;79.58;98227.56;4360822;32;35005;-87
2021/12/09 04:01:41;;;;;;;60.05;28.00;;;;;;;1.34;77.85;98231.09;4347628;32;34171;-87
2021/12/09 04:04:10;;;;;;;56.13;25.80;;;;;;;0.91;78.86;98227.91;4334859;32;32659;-87
2021/12/09 04:06:44;;;;;;;52.35;25.52;;;;;;;0.79;79.40;98217.25;4360938;32;33879;-85
2021/12/09 04:09:14;;;;;;;51.70;25.25;;;;;;;0.89;79.17;98209.13;4360918;32;33849;-92
2021/12/09 04:11:41;;;;;;;50.17;23.92;;;;;;;0.90;78.49;98223.59;4346888;32;33380;-88
2021/12/09 04:14:08;;;;;;;56.85;26.87;;;;;;;0.75;79.82;98214.53;4360816;32;34627;-87
2021/12/09 04:16:37;;;;;;;59.22;27.80;;;;;;;0.68;80.13;98209.25;4347242;32;33720;-88
2021/12/09 04:19:06;;;;;;;52.78;25.45;;;;;;;0.81;79.62;98196.91;4360835;32;34127;-88
2021/12/09 04:21:34;;;;;;;56.28;25.50;;;;;;;0.89;79.14;98203.16;4347585;32;33773;-86
2021/12/09 04:24:07;;;;;;;55.75;27.67;;;;;;;0.73;79.90;98214.50;4360744;32;35310;-87
2021/12/09 04:26:39;;;;;;;51.90;26.73;;;;;;;1.08;78.47;98220.84;4360794;32;35254;-89
2021/12/09 04:29:08;;;;;;;51.72;26.75;;;;;;;1.10;78.38;98226.88;4360928;32;34675;-85
2021/12/09 04:31:36;;;;;;;50.95;27.23;;;;;;;0.89;78.96;98226.97;4360307;32;36528;-87
2021/12/09 04:34:04;;;;;;;55.70;27.58;;;;;;;1.28;77.79;98225.75;4360664;32;34869;-88
2021/12/09 04:36:32;;;;;;;53.00;23.98;;;;;;;1.11;78.01;98217.53;4361032;32;35033;-89
2021/12/09 04:39:00;;;;;;;56.47;26.40;;;;;;;0.85;78.92;98208.97;4346734;32;34119;-85
2021/12/09 04:41:28;;;;;;;50.53;26.33;;;;;;;0.87;79.40;98200.56;4346817;32;32340;-89
2021/12/09 04:43:55;;;;;;;52.97;26.77;;;;;;;0.81;79.44;98195.22;4361122;32;33739;-87
2021/12/09 04:46:23;;;;;;;58.58;26.80;;;;;;;0.77;79.23;98197.63;4360592;32;35024;-89
2021/12/09 04:48:50;;;;;;;51.13;24.80;;;;;;;0.85;79.28;98194.53;4360884;32;34618;-87
2021/12/09 04:51:18;;;;;;;52.95;25.73;;;;;;;0.97;78.74;98186.44;4360840;32;33602;-85
2021/12/09 04:53:46;;;;;;;47.30;23.60;;;;;;;0.93;78.60;98185.44;4361051;32;33410;-87
2021/12/09 04:56:13;;;;;;;43.95;23.60;;;;;;;0.77;79.39;98193.38;4360755;32;35282;-86
2021/12/09 04:58:41;;;;;;;49.65;23.45;;;;;;;0.81;79.34;98190.12;4360729;32;33901;-85
2021/12/09 05:01:09;;;;;;;45.67;23.15;;;;;;;0.99;78.71;98187.34;4360284;32;33641;-86
2021/12/09 05:03:36;;;;;;;40.30;22.30;;;;;;;0.80;79.13;98192.63;4361267;32;33384;-85
2021/12/09 05:06:04;;;;;;;40.25;21.12;;;;;;;1.15;77.95;98193.84;4360541;32;35002;-87
2021/12/09 05:08:33;;;;;;;40.72;21.62;;;;;;;1.05;77.96;98191.78;4352656;32;33781;-87
2021/12/09 05:13:32;;;;;;;37.00;20.88;;;;;;;1.01;78.13;98190.81;4360920;32;34789;-87
2021/12/09 05:16:03;;;;;;;40.42;22.75;;;;;;;1.01;77.91;98198.47;4338862;32;35102;-89
2021/12/09 05:18:33;;;;;;;42.88;21.12;;;;;;;1.10;77.69;98211.56;4360539;32;34834;-88
2021/12/09 05:21:03;;;;;;;42.85;22.23;;;;;;;0.93;77.80;98203.31;4360408;32;34307;-87
2021/12/09 05:23:31;;;;;;;39.20;21.50;;;;;;;0.91;77.96;98201.50;4360575;32;34527;-87
2021/12/09 05:25:58;;;;;;;35.47;18.85;;;;;;;1.11;77.44;98207.31;4359146;32;33884;-89
2021/12/09 05:28:32;;;;;;;38.80;20.70;;;;;;;0.89;78.00;98200.59;4348130;32;33786;-88
2021/12/09 05:33:48;;;;;;;41.47;19.55;;;;;;;1.14;77.40;98189.56;4359940;32;33442;-87
2021/12/09 05:36:17;;;;;;;35.17;19.50;;;;;;;1.28;76.77;98190.88;4360527;32;33648;-87
2021/12/09 05:38:44;;;;;;;38.35;18.98;;;;;;;1.17;77.01;98187.97;4360140;32;33662;-84
2021/12/09 05:41:13;;;;;;;37.72;19.90;;;;;;;1.02;77.49;98176.38;4360024;32;33425;-85
2021/12/09 05:43:41;;;;;;;40.95;21.85;;;;;;;1.12;77.12;98170.78;4359976;32;33832;-87
2021/12/09 05:46:08;;;;;;;36.45;20.37;;;;;;;1.08;77.26;98163.81;4360087;32;34162;-88
2021/12/09 05:48:36;;;;;;;37.90;20.40;;;;;;;1.07;77.52;98164.66;4359330;32;34152;-89
2021/12/09 05:51:04;;;;;;;42.40;21.92;;;;;;;1.20;76.95;98148.91;4353420;32;33585;-86
2021/12/09 05:53:32;;;;;;;41.47;21.30;;;;;;;1.12;77.31;98141.00;4346989;32;34028;-85
2021/12/09 05:55:59;;;;;;;38.90;22.08;;;;;;;1.24;76.50;98130.31;4360267;32;33850;-87
2021/12/09 05:58:27;;;;;;;41.95;23.80;;;;;;;1.03;77.42;98137.28;4360434;32;34199;-85
2021/12/09 06:00:54;;;;;;;45.97;23.77;;;;;;;1.24;76.48;98132.88;4350329;32;33784;-85
2021/12/09 06:03:23;;;;;;;42.70;24.70;;;;;;;1.28;76.44;98131.28;4360170;32;34608;-85
2021/12/09 06:05:51;;;;;;;47.00;24.92;;;;;;;1.19;76.77;98132.72;4360033;32;33673;-87
2021/12/09 06:08:19;;;;;;;40.55;21.35;;;;;;;1.11;77.00;98135.84;4346383;32;34508;-86
2021/12/09 06:10:47;;;;;;;51.20;27.05;;;;;;;1.00;77.78;98134.63;4347449;32;33440;-84
2021/12/09 06:13:16;;;;;;;47.10;25.65;;;;;;;0.91;78.45;98133.50;4360343;32;33434;-91
2021/12/09 06:15:44;;;;;;;51.97;26.60;;;;;;;1.04;78.04;98131.34;4359404;32;34927;-86
2021/12/09 06:18:12;;;;;;;52.30;27.52;;;;;;;1.09;77.92;98133.22;4346681;32;33844;-87
2021/12/09 06:20:39;;;;;;;48.00;26.45;;;;;;;1.22;77.57;98129.41;4360238;32;33975;-87
2021/12/09 06:23:07;;;;;;;55.35;29.35;;;;;;;1.03;78.60;98114.31;4346851;32;34011;-87
2021/12/09 06:25:34;;;;;;;52.90;27.92;;;;;;;1.15;78.44;98115.59;4360555;32;34133;-87
2021/12/09 06:28:02;;;;;;;47.58;24.45;;;;;;;1.07;78.29;98119.56;4360391;32;34624;-86
2021/12/09 06:30:29;;;;;;;59.35;29.30;;;;;;;0.71;79.89;98116.63;4360149;32;33425;-86
2021/12/09 06:32:57;;;;;;;54.20;27.75;;;;;;;0.65;80.38;98106.22;4347451;32;34678;-87
2021/12/09 06:35:27;;;;;;;55.22;26.92;;;;;;;0.95;79.55;98112.38;4360617;32;34049;-86
2021/12/09 06:37:55;;;;;;;51.40;27.60;;;;;;;0.81;79.71;98094.87;4360538;32;33965;-88
2021/12/09 06:40:23;;;;;;;54.05;27.85;;;;;;;0.76;80.08;98098.91;4360589;32;33086;-88
2021/12/09 06:42:51;;;;;;;55.30;30.33;;;;;;;0.82;79.40;98096.59;4351968;32;33798;-87
2021/12/09 06:45:21;;;;;;;54.53;27.48;;;;;;;1.12;78.90;98106.94;4345931;32;34231;-90
2021/12/09 07:13:10;;;;;;;42.88;23.48;;;;;;;0.87;79.11;98126.56;5175805;27;20061;-91
2021/12/09 07:15:38;;;;;;;51.75;24.63;;;;;;;0.93;78.95;98142.06;4359986;32;33848;-88
2021/12/09 07:18:06;;;;;;;47.75;25.70;;;;;;;1.09;78.33;98150.25;4361406;32;33208;-85
2021/12/09 07:20:34;;;;;;;44.47;24.48;;;;;;;1.04;78.27;98150.09;4346164;32;34491;-86
2021/12/09 07:23:02;;;;;;;49.40;25.40;;;;;;;0.73;79.19;98153.28;4374089;32;33179;-87
2021/12/09 07:25:30;;;;;;;51.08;25.60;;;;;;;0.86;79.04;98142.66;4361758;32;32698;-93
2021/12/09 07:27:58;;;;;;;46.67;25.50;;;;;;;0.69;79.81;98125.94;4361479;32;33468;-87
2021/12/09 07:30:26;;;;;;;48.22;25.00;;;;;;;0.66;79.86;98113.06;4375301;32;34090;-87
2021/12/09 07:32:54;;;;;;;47.75;24.40;;;;;;;0.80;79.50;98116.97;4361875;32;33563;-87
2021/12/09 07:35:23;;;;;;;50.75;25.60;;;;;;;1.00;78.68;98101.44;4374306;32;32086;-88
2021/12/09 07:37:50;;;;;;;53.17;28.20;;;;;;;1.13;78.28;98106.13;4349139;32;34265;-92
2021/12/09 07:40:19;;;;;;;48.45;25.77;;;;;;;1.12;77.89;98106.94;4360813;32;32473;-91
2021/12/09 07:42:47;;;;;;;54.95;26.70;;;;;;;1.15;78.29;98104.50;4361515;32;33583;-88
2021/12/09 07:45:16;;;;;;;53.05;26.92;;;;;;;1.29;77.83;98098.16;4361856;32;33245;-94
2021/12/09 07:47:44;;;;;;;53.70;27.35;;;;;;;1.15;78.47;98102.81;4348964;32;33785;-89
2021/12/09 07:50:16;;;;;;;51.72;28.17;;;;;;;0.94;79.00;98097.84;4361298;32;33630;-89
2021/12/09 07:52:48;;;;;;;43.65;23.75;;;;;;;1.04;78.93;98080.31;4374499;32;33590;-90
2021/12/09 07:55:16;;;;;;;48.33;24.85;;;;;;;0.85;79.82;98095.00;4361020;32;33387;-88
2021/12/09 07:57:44;;;;;;;49.13;25.10;;;;;;;0.96;79.64;98096.25;4360223;32;34366;-91
2021/12/09 08:00:18;;;;;;;56.47;26.33;;;;;;;1.05;79.42;98094.81;4360561;32;33565;-88
2021/12/09 08:02:47;;;;;;;55.45;27.98;;;;;;;1.00;79.01;98081.03;4345671;32;33744;-96
2021/12/09 08:05:15;;;;;;;58.97;26.87;;;;;;;1.14;79.02;98088.31;4358335;32;32467;-88
2021/12/09 08:07:43;;;;;;;46.50;23.45;;;;;;;1.07;78.79;98083.84;4361722;32;33857;-94
2021/12/09 08:10:13;;;;;;;60.10;29.90;;;;;;;0.69;80.36;98077.47;4350582;32;34629;-92
2021/12/09 08:12:41;;;;;;;44.70;22.23;;;;;;;0.87;80.22;98078.09;4376297;32;33589;-87
2021/12/09 08:15:34;;;;;;;46.92;25.08;;;;;;;0.85;79.39;98083.94;4364899;32;33929;-95
2021/12/09 08:18:14;;;;;;;46.97;24.67;;;;;;;0.60;80.59;98085.66;4350206;32;34021;-88
2021/12/09 08:20:42;;;;;;;45.25;22.92;;;;;;;0.68;80.33;98080.81;4376550;32;34003;-93
2021/12/09 08:23:10;;;;;;;41.55;23.08;;;;;;;0.72;80.19;98092.88;4376509;32;34231;-95
2021/12/09 08:25:37;;;;;;;44.63;23.33;;;;;;;0.45;80.53;98087.66;4363298;32;34128;-89
2021/12/09 08:28:05;;;;;;;46.08;24.98;;;;;;;0.55;80.78;98102.50;4363202;32;33529;-87
2021/12/09 08:30:33;;;;;;;43.95;22.10;;;;;;;0.72;80.08;98082.69;4363132;32;33557;-90
2021/12/09 08:33:23;;;;;;;45.13;23.17;;;;;;;0.64;80.04;98073.88;4352009;32;32938;-87
2021/12/09 08:35:51;;;;;;;43.85;22.80;;;;;;;0.81;80.02;98062.56;4350468;32;34273;-88
2021/12/09 08:38:19;;;;;;;42.95;22.15;;;;;;;0.72;79.82;98065.69;4362812;32;34589;-87
2021/12/09 08:40:48;;;;;;;46.30;22.60;;;;;;;0.83;79.96;98071.13;4362593;32;34100;-86
2021/12/09 08:43:16;;;;;;;42.10;21.37;;;;;;;0.77;79.80;98075.16;4362498;32;33789;-86
2021/12/09 08:45:44;;;;;;;54.20;26.55;;;;;;;0.67;79.92;98073.97;4376197;32;33571;-87
2021/12/09 08:48:12;;;;;;;44.38;23.15;;;;;;;0.91;79.52;98068.81;4362461;32;33829;-86
2021/12/09 08:50:42;;;;;;;44.40;22.73;;;;;;;0.78;80.09;98057.34;4362348;32;34633;-87
2021/12/09 08:53:13;;;;;;;42.65;21.15;;;;;;;0.76;80.18;98058.09;4376014;32;33554;-87
2021/12/09 08:55:40;;;;;;;44.33;23.25;;;;;;;0.70;80.31;98058.78;4362598;32;33905;-86
2021/12/09 08:58:09;;;;;;;50.72;26.00;;;;;;;0.84;79.92;98059.25;4375879;32;34759;-87
2021/12/09 09:00:37;;;;;;;57.55;25.05;;;;;;;1.01;79.90;98052.13;4362519;32;34043;-86
2021/12/09 09:03:05;;;;;;;52.60;24.00;;;;;;;1.00;79.19;98048.72;4376001;32;34157;-87
2021/12/09 09:05:34;;;;;;;38.70;20.23;;;;;;;1.06;79.32;98064.25;4350094;32;32820;-95
2021/12/09 09:08:02;;;;;;;51.30;24.70;;;;;;;1.05;78.90;98070.16;4362556;32;33593;-87
2021/12/09 09:10:32;;;;;;;46.75;22.52;;;;;;;1.06;79.63;98069.34;4376051;32;33827;-89
2021/12/09 09:13:00;;;;;;;50.88;24.12;;;;;;;1.09;79.47;98071.13;4362162;32;34490;-87
2021/12/09 09:15:28;;;;;;;40.25;22.30;;;;;;;1.05;79.88;98071.84;4362072;32;34283;-87
2021/12/09 09:17:56;;;;;;;46.70;23.77;;;;;;;1.18;79.40;98071.44;4361844;32;32854;-87
2021/12/09 09:20:27;;;;;;;41.78;23.17;;;;;;;1.30;78.74;98068.38;4362184;32;33818;-87
2021/12/09 09:22:55;;;;;;;42.80;22.13;;;;;;;1.16;79.12;98083.25;4375430;32;34094;-87
2021/12/09 09:25:29;;;;;;;40.42;21.90;;;;;;;1.22;79.16;98083.47;4349675;32;33569;-86
2021/12/09 09:28:00;;;;;;;43.50;23.55;;;;;;;1.06;79.65;98088.87;4375879;32;33759;-86
2021/12/09 09:30:36;;;;;;;42.75;21.23;;;;;;;1.10;80.01;98083.06;4362049;32;33942;-86
2021/12/09 09:33:06;;;;;;;45.38;24.10;;;;;;;1.08;80.10;98057.50;4375981;32;33044;-94
2021/12/09 09:35:35;;;;;;;42.22;21.87;;;;;;;1.02;80.45;98030.91;4362300;32;33967;-88
2021/12/09 09:38:04;;;;;;;47.42;22.40;;;;;;;1.08;80.53;98043.88;4375488;32;33781;-86
2021/12/09 09:40:42;;;;;;;43.87;23.23;;;;;;;1.28;79.75;98024.91;4349904;32;32947;-86
2021/12/09 09:46:05;;;;;;;40.20;21.27;;;;;;;1.25;80.47;98019.75;4357614;32;241022;-87
2021/12/09 09:48:33;;;;;;;43.90;22.75;;;;;;;1.06;80.39;98014.84;4349671;32;32621;-86
2021/12/09 09:51:03;;;;;;;49.83;24.92;;;;;;;1.26;80.14;98003.59;4375732;32;34206;-86
2021/12/09 09:53:31;;;;;;;44.75;24.42;;;;;;;1.24;80.17;98007.78;4361962;32;33733;-86
2021/12/09 09:55:58;;;;;;;44.58;23.45;;;;;;;1.09;80.83;98014.97;4362197;32;33341;-86
2021/12/09 09:58:27;;;;;;;50.63;25.77;;;;;;;1.07;80.82;97998.75;4376228;32;34728;-86
2021/12/09 10:00:54;;;;;;;50.42;24.92;;;;;;;1.07;81.20;97986.00;4375650;32;34930;-87
2021/12/09 10:03:29;;;;;;;54.97;25.98;;;;;;;1.16;81.29;97993.91;4375578;32;33168;-87
2021/12/09 10:06:02;;;;;;;52.30;24.65;;;;;;;1.14;80.96;97990.47;4375473;32;33177;-86
2021/12/09 10:08:31;;;;;;;47.40;22.77;;;;;;;1.25;80.30;97994.22;4375620;32;34345;-87
2021/12/09 10:10:59;;;;;;;47.53;25.55;;;;;;;1.33;79.87;97990.19;4362295;32;34030;-86
2021/12/09 10:13:31;;;;;;;66.15;31.60;;;;;;;0.96;81.04;97988.19;4361649;32;34703;-86
2021/12/09 10:16:01;;;;;;;85.62;33.67;;;;;;;1.15;80.98;97966.66;4361877;32;34063;-86
2021/12/09 10:18:44;;;;;;;53.90;26.98;;;;;;;1.26;81.03;97969.53;4361957;32;34636;-86
2021/12/09 10:21:19;;;;;;;69.70;30.00;;;;;;;1.21;80.28;97971.94;4362396;32;35106;-94
2021/12/09 10:23:50;;;;;;;47.95;24.67;;;;;;;1.18;80.52;97976.97;4349541;32;32444;-86
2021/12/09 10:26:26;;;;;;;50.42;23.62;;;;;;;1.13;80.78;97979.34;4362058;32;33067;-86
2021/12/09 10:28:56;;;;;;;44.30;23.30;;;;;;;1.23;80.42;97972.87;4360843;32;34472;-84
2021/12/09 10:31:29;;;;;;;50.03;23.77;;;;;;;1.21;80.18;97952.41;4375457;32;34126;-86
2021/12/09 10:34:27;;;;;;;48.72;23.25;;;;;;;1.43;79.95;97971.75;4375410;32;33594;-87
2021/12/09 10:37:11;;;;;;;50.22;24.52;;;;;;;1.45;79.98;97984.59;4350732;32;33436;-87
2021/12/09 10:39:42;;;;;;;45.67;23.62;;;;;;;1.46;79.43;97982.06;4375488;32;33719;-92
2021/12/09 10:42:25;;;;;;;56.25;24.33;;;;;;;1.56;79.73;97990.00;4349281;32;33401;-87
2021/12/09 10:44:58;;;;;;;46.75;23.67;;;;;;;1.47;79.21;97990.59;4349420;32;32775;-86
2021/12/09 10:50:33;;;;;;;44.25;23.15;;;;;;;1.74;78.97;97980.31;4375070;32;33580;-87
2021/12/09 10:55:55;;;;;;;48.00;23.62;;;;;;;1.51;80.19;97976.22;4375293;32;33696;-86
2021/12/09 10:58:28;;;;;;;45.85;24.70;;;;;;;1.65;79.89;97980.06;4361659;32;33210;-87
2021/12/09 11:00:56;;;;;;;51.75;26.37;;;;;;;1.56;79.97;97974.69;4375362;32;34262;-89
2021/12/09 11:03:25;;;;;;;45.72;24.45;;;;;;;1.59;80.60;97967.09;4361547;32;34581;-88
2021/12/09 11:06:05;;;;;;;53.20;26.75;;;;;;;1.64;80.21;97974.06;4361258;32;33046;-88
2021/12/09 11:08:37;;;;;;;45.47;24.05;;;;;;;1.70;80.09;97974.28;4349056;32;33140;-88
2021/12/09 11:11:11;;;;;;;52.72;23.50;;;;;;;1.62;80.20;97975.72;4361432;32;33368;-89
2021/12/09 11:13:41;;;;;;;47.83;25.00;;;;;;;1.24;81.36;97969.47;4374623;32;33290;-87
2021/12/09 11:16:09;;;;;;;49.45;25.85;;;;;;;1.50;80.75;97954.06;4361722;32;34208;-87
2021/12/09 11:18:43;;;;;;;49.40;25.05;;;;;;;1.47;81.29;97957.38;4361208;32;34255;-88
2021/12/09 11:21:19;;;;;;;45.83;25.50;;;;;;;1.79;80.05;97958.31;4361368;32;33555;-87
2021/12/09 11:23:56;;;;;;;50.28;25.35;;;;;;;1.70;80.03;97942.72;4374826;32;33980;-87
2021/12/09 11:26:40;;;;;;;44.15;24.63;;;;;;;1.58;80.08;97929.59;4361550;32;34572;-88
2021/12/09 11:29:11;;;;;;;47.78;25.90;;;;;;;1.79;80.12;97927.66;4362696;32;33657;-87
2021/12/09 11:32:03;;;;;;;46.28;25.02;;;;;;;1.71;80.53;97921.47;4361075;32;33868;-87
2021/12/09 11:34:56;;;;;;;47.00;25.95;;;;;;;1.42;81.23;97924.06;4374604;32;35089;-87
2021/12/09 11:40:06;;;;;;;45.50;23.10;;;;;;;1.46;81.39;97933.53;4362547;32;33396;-87
2021/12/09 11:42:43;;;;;;;48.95;24.45;;;;;;;1.41;81.52;97942.78;4376633;32;34273;-89
2021/12/09 11:45:14;;;;;;;51.70;26.45;;;;;;;1.66;80.73;97926.44;4364189;32;33992;-87
2021/12/09 11:47:44;;;;;;;50.83;26.10;;;;;;;1.63;81.04;97926.38;4362955;32;33419;-87
2021/12/09 11:50:21;;;;;;;47.75;24.35;;;;;;;1.59;81.22;97928.78;4376771;32;33540;-87
2021/12/09 11:52:52;;;;;;;42.70;23.42;;;;;;;1.43;82.12;97927.47;4362939;32;33748;-87
2021/12/09 11:55:22;;;;;;;46.53;24.37;;;;;;;1.42;82.33;97911.28;4363103;32;34335;-87
2021/12/09 11:58:28;;;;;;;49.70;26.23;;;;;;;1.26;82.33;97914.25;4350452;32;32650;-87
2021/12/09 12:12:38;;;;;;;55.85;27.17;;;;;;;1.34;82.67;97902.56;4376304;32;33000;-87
2021/12/09 12:18:40;;;;;;;54.65;26.10;;;;;;;1.50;82.40;97892.78;4376331;32;33805;-87
2021/12/09 12:21:23;;;;;;;53.35;27.55;;;;;;;1.55;81.93;97891.19;4366028;32;33580;-86
2021/12/09 12:24:09;;;;;;;56.58;26.45;;;;;;;1.67;81.45;97889.00;4376346;32;33928;-87
2021/12/09 12:38:11;;;;;;;57.17;27.87;;;;;;;1.67;81.75;97883.91;4375979;32;33798;-86
2021/12/09 12:40:54;;;;;;;52.47;28.42;;;;;;;1.68;82.00;97883.06;4376204;32;34081;-87
2021/12/09 12:43:34;;;;;;;55.15;27.83;;;;;;;1.85;81.59;97896.28;4363209;32;33700;-87
2021/12/09 12:51:18;;;;;;;50.08;27.50;;;;;;;1.59;82.11;97914.34;4362057;32;33856;-90
2021/12/09 12:53:49;;;;;;;52.40;28.90;;;;;;;1.78;81.78;97913.16;4349818;32;33265;-87